Kezdőlap
METAR-TAF:

METAR-TAF

Repülőterek :

Katima Mulilo, Namíbia

földrajzi szélesség: 17-38-04S, földrajzi hosszúság: 024-10-36E, magasság: 985 m

Jelenlegi meteorológiai megfigyelések

A jelentés 2 órával és 3 perccel ezelõtt készült, 12:00 UTC
Szélcsend
Hőmérséklet 28°C
Páratartalom 58%
Légköri nyomás 1010 hPa
Látótávolság 10 km, vagy több
Szórványos felhőzet 3000 lábon, Cumulonimbus.
esõ

METAR: FYKM 241200Z 00000KT 9999 RA SCT030CB 28/19 Q1010

Idő: 16:03 (14:03 UTC)


TAF: hiányzik

Meteorológiai megfigyelések és előrejelzések több, mint 4000 repülőtéren (METAR és TAF jelentéseket).

A térképen piros és sárga pontok jelzik az elérhető meteorológiai állomásokat.

Mozgassa az egeret a pont fölött, hogy megjelenjen az állomás neve.

Azután kattintson az időjárási megfigyelések és előrejelzések megtekintéséhez.

A térkép megváltoztatása: kattintson a fekete keresztel jelölt zöld gombra ráközelítéshez, a vonallal jelölt zöld gombra távolításhoz, vagy a zöld nyilakra a szomszédos térképek eléréséhez.


METAR-TAF: